sensor_id;sensor_type;location;lat;lon;timestamp;pressure;altitude;pressure_sealevel;temperature;humidity
35655;BME280;21773;50.010;19.972;2022-09-16T00:00:25;97719.31;;;21.82;50.64
35655;BME280;21773;50.010;19.972;2022-09-16T00:03:30;97732.53;;;21.80;50.31
35655;BME280;21773;50.010;19.972;2022-09-16T00:06:35;97725.78;;;21.77;50.39
35655;BME280;21773;50.010;19.972;2022-09-16T00:09:40;97728.84;;;21.76;50.81
35655;BME280;21773;50.010;19.972;2022-09-16T00:12:43;97747.06;;;21.72;50.66
35655;BME280;21773;50.010;19.972;2022-09-16T00:15:48;97740.78;;;21.71;50.24
35655;BME280;21773;50.010;19.972;2022-09-16T00:18:53;97739.97;;;21.71;51.13
35655;BME280;21773;50.010;19.972;2022-09-16T00:21:57;97745.94;;;21.73;51.39
35655;BME280;21773;50.010;19.972;2022-09-16T00:25:02;97740.47;;;21.73;50.92
35655;BME280;21773;50.010;19.972;2022-09-16T00:28:06;97742.91;;;21.74;51.02
35655;BME280;21773;50.010;19.972;2022-09-16T00:31:09;97752.41;;;21.77;51.27
35655;BME280;21773;50.010;19.972;2022-09-16T00:34:13;97741.44;;;21.77;51.01
35655;BME280;21773;50.010;19.972;2022-09-16T00:37:16;97753.22;;;21.77;51.04
35655;BME280;21773;50.010;19.972;2022-09-16T00:40:21;97750.47;;;21.77;51.06
35655;BME280;21773;50.010;19.972;2022-09-16T00:43:25;97719.94;;;21.53;50.98
35655;BME280;21773;50.010;19.972;2022-09-16T00:46:33;97756.75;;;21.78;50.88
35655;BME280;21773;50.010;19.972;2022-09-16T00:49:37;97748.53;;;21.78;50.63
35655;BME280;21773;50.010;19.972;2022-09-16T00:52:40;97748.22;;;21.79;50.43
35655;BME280;21773;50.010;19.972;2022-09-16T00:55:46;97742.38;;;21.81;50.58
35655;BME280;21773;50.010;19.972;2022-09-16T00:58:52;97751.44;;;21.81;50.69
35655;BME280;21773;50.010;19.972;2022-09-16T01:01:59;97749.00;;;21.80;50.60
35655;BME280;21773;50.010;19.972;2022-09-16T01:05:08;97752.56;;;21.80;50.51
35655;BME280;21773;50.010;19.972;2022-09-16T01:08:13;97719.47;;;21.59;50.81
35655;BME280;21773;50.010;19.972;2022-09-16T01:11:18;97756.91;;;21.81;50.74
35655;BME280;21773;50.010;19.972;2022-09-16T01:14:23;97758.84;;;21.81;50.32
35655;BME280;21773;50.010;19.972;2022-09-16T01:17:55;97758.03;;;21.80;50.46
35655;BME280;21773;50.010;19.972;2022-09-16T01:21:22;97768.69;;;21.82;50.62
35655;BME280;21773;50.010;19.972;2022-09-16T01:24:44;97772.25;;;21.82;50.39
35655;BME280;21773;50.010;19.972;2022-09-16T01:31:28;97772.25;;;21.82;50.20
35655;BME280;21773;50.010;19.972;2022-09-16T01:34:44;97771.44;;;21.82;50.56
35655;BME280;21773;50.010;19.972;2022-09-16T01:37:58;97771.44;;;21.82;50.51
35655;BME280;21773;50.010;19.972;2022-09-16T01:41:07;97768.38;;;21.83;50.31
35655;BME280;21773;50.010;19.972;2022-09-16T01:44:20;97765.66;;;21.83;50.20
35655;BME280;21773;50.010;19.972;2022-09-16T01:47:34;97771.13;;;21.83;50.54
35655;BME280;21773;50.010;19.972;2022-09-16T01:50:42;97770.00;;;21.84;50.48
35655;BME280;21773;50.010;19.972;2022-09-16T01:53:53;97767.28;;;21.84;50.00
35655;BME280;21773;50.010;19.972;2022-09-16T01:57:01;97766.47;;;21.84;49.94
35655;BME280;21773;50.010;19.972;2022-09-16T02:00:09;97764.34;;;21.81;50.13
35655;BME280;21773;50.010;19.972;2022-09-16T02:03:19;97764.03;;;21.82;49.85
35655;BME280;21773;50.010;19.972;2022-09-16T02:06:25;97760.47;;;21.82;50.11
35655;BME280;21773;50.010;19.972;2022-09-16T02:09:33;97758.84;;;21.81;49.99
35655;BME280;21773;50.010;19.972;2022-09-16T02:12:42;97751.75;;;21.80;49.80
35655;BME280;21773;50.010;19.972;2022-09-16T02:15:50;97767.44;;;21.79;49.74
35655;BME280;21773;50.010;19.972;2022-09-16T02:18:58;97767.44;;;21.79;49.52
35655;BME280;21773;50.010;19.972;2022-09-16T02:22:13;97768.56;;;21.78;49.47
35655;BME280;21773;50.010;19.972;2022-09-16T02:25:19;97771.91;;;21.75;49.46
35655;BME280;21773;50.010;19.972;2022-09-16T02:28:28;97775.81;;;21.74;50.01
35655;BME280;21773;50.010;19.972;2022-09-16T02:31:34;97769.81;;;21.72;50.00
35655;BME280;21773;50.010;19.972;2022-09-16T02:34:43;97770.13;;;21.71;50.23
35655;BME280;21773;50.010;19.972;2022-09-16T02:37:49;97769.63;;;21.60;49.94
35655;BME280;21773;50.010;19.972;2022-09-16T02:40:57;97782.88;;;21.67;49.75
35655;BME280;21773;50.010;19.972;2022-09-16T02:44:02;97782.06;;;21.66;50.19
35655;BME280;21773;50.010;19.972;2022-09-16T02:47:10;97787.56;;;21.66;50.16
35655;BME280;21773;50.010;19.972;2022-09-16T02:50:21;97782.41;;;21.65;50.09
35655;BME280;21773;50.010;19.972;2022-09-16T02:53:42;97770.63;;;21.64;50.03
35655;BME280;21773;50.010;19.972;2022-09-16T02:56:47;97781.59;;;21.64;50.30
35655;BME280;21773;50.010;19.972;2022-09-16T02:59:51;97788.69;;;21.65;49.90
35655;BME280;21773;50.010;19.972;2022-09-16T03:02:54;97783.53;;;21.64;49.76
35655;BME280;21773;50.010;19.972;2022-09-16T03:06:13;97781.59;;;21.64;50.09
35655;BME280;21773;50.010;19.972;2022-09-16T03:09:17;97779.97;;;21.63;49.51
35655;BME280;21773;50.010;19.972;2022-09-16T03:12:38;97775.13;;;21.60;49.75
35655;BME280;21773;50.010;19.972;2022-09-16T03:15:54;97767.22;;;21.58;49.53
35655;BME280;21773;50.010;19.972;2022-09-16T03:19:10;97765.44;;;21.54;49.51
35655;BME280;21773;50.010;19.972;2022-09-16T03:22:29;97775.91;;;21.52;49.34
35655;BME280;21773;50.010;19.972;2022-09-16T03:25:46;97777.84;;;21.51;48.94
35655;BME280;21773;50.010;19.972;2022-09-16T03:29:01;97775.44;;;21.50;49.19
35655;BME280;21773;50.010;19.972;2022-09-16T03:32:13;97777.38;;;21.49;49.13
35655;BME280;21773;50.010;19.972;2022-09-16T03:35:22;97774.63;;;21.49;49.10
35655;BME280;21773;50.010;19.972;2022-09-16T03:38:31;97769.16;;;21.49;48.90
35655;BME280;21773;50.010;19.972;2022-09-16T03:41:36;97780.13;;;21.49;48.97
35655;BME280;21773;50.010;19.972;2022-09-16T03:44:39;97774.63;;;21.49;48.52
35655;BME280;21773;50.010;19.972;2022-09-16T03:47:45;97757.66;;;21.39;48.93
35655;BME280;21773;50.010;19.972;2022-09-16T03:50:48;97772.72;;;21.50;48.74
35655;BME280;21773;50.010;19.972;2022-09-16T03:53:53;97770.75;;;21.50;48.77
35655;BME280;21773;50.010;19.972;2022-09-16T03:56:57;97768.50;;;21.44;48.90
35655;BME280;21773;50.010;19.972;2022-09-16T04:00:01;97776.22;;;21.50;48.82
35655;BME280;21773;50.010;19.972;2022-09-16T04:03:12;97773.47;;;21.50;48.49
35655;BME280;21773;50.010;19.972;2022-09-16T04:06:15;97765.59;;;21.49;48.77
35655;BME280;21773;50.010;19.972;2022-09-16T04:09:20;97771.09;;;21.49;48.70
35655;BME280;21773;50.010;19.972;2022-09-16T04:12:24;97771.09;;;21.49;48.82
35655;BME280;21773;50.010;19.972;2022-09-16T04:15:27;97786.22;;;21.46;48.82
35655;BME280;21773;50.010;19.972;2022-09-16T04:18:31;97790.09;;;21.45;48.49
35655;BME280;21773;50.010;19.972;2022-09-16T04:21:35;97791.53;;;21.43;48.86
35655;BME280;21773;50.010;19.972;2022-09-16T04:24:40;97782.50;;;21.42;48.68
35655;BME280;21773;50.010;19.972;2022-09-16T04:27:43;97797.34;;;21.41;48.71
35655;BME280;21773;50.010;19.972;2022-09-16T04:30:47;97807.19;;;21.42;48.52
35655;BME280;21773;50.010;19.972;2022-09-16T04:33:50;97803.31;;;21.43;48.68
35655;BME280;21773;50.010;19.972;2022-09-16T04:36:53;97805.75;;;21.45;48.78
35655;BME280;21773;50.010;19.972;2022-09-16T04:39:59;97807.34;;;21.46;48.79
35655;BME280;21773;50.010;19.972;2022-09-16T04:43:06;97806.72;;;21.49;49.23
35655;BME280;21773;50.010;19.972;2022-09-16T04:46:10;97816.06;;;21.48;49.23
35655;BME280;21773;50.010;19.972;2022-09-16T04:49:14;97815.25;;;21.47;48.73
35655;BME280;21773;50.010;19.972;2022-09-16T04:52:17;97805.63;;;21.50;48.84
35655;BME280;21773;50.010;19.972;2022-09-16T04:55:22;97813.50;;;21.51;49.18
35655;BME280;21773;50.010;19.972;2022-09-16T04:58:28;97805.78;;;21.53;49.28
35655;BME280;21773;50.010;19.972;2022-09-16T05:01:32;97809.31;;;21.54;49.02
35655;BME280;21773;50.010;19.972;2022-09-16T05:04:38;97811.72;;;21.55;48.90
35655;BME280;21773;50.010;19.972;2022-09-16T05:07:42;97825.63;;;21.59;49.01
35655;BME280;21773;50.010;19.972;2022-09-16T05:10:47;97823.88;;;21.63;49.07
35655;BME280;21773;50.010;19.972;2022-09-16T05:13:53;97827.56;;;21.67;48.99
35655;BME280;21773;50.010;19.972;2022-09-16T05:16:56;97820.00;;;21.73;48.89
35655;BME280;21773;50.010;19.972;2022-09-16T05:20:00;97830.53;;;21.79;48.86
35655;BME280;21773;50.010;19.972;2022-09-16T05:23:04;97831.16;;;21.85;48.80
35655;BME280;21773;50.010;19.972;2022-09-16T05:26:12;97821.34;;;21.92;49.64
35655;BME280;21773;50.010;19.972;2022-09-16T05:29:16;97822.47;;;21.91;49.36
35655;BME280;21773;50.010;19.972;2022-09-16T05:32:19;97793.03;;;21.57;49.42
35655;BME280;21773;50.010;19.972;2022-09-16T05:35:23;97822.00;;;21.41;49.82
35655;BME280;21773;50.010;19.972;2022-09-16T05:38:26;97830.56;;;21.09;50.42
35655;BME280;21773;50.010;19.972;2022-09-16T05:41:31;97828.63;;;21.01;51.04
35655;BME280;21773;50.010;19.972;2022-09-16T05:44:35;97829.50;;;20.88;50.94
35655;BME280;21773;50.010;19.972;2022-09-16T05:47:38;97826.44;;;20.89;51.31
35655;BME280;21773;50.010;19.972;2022-09-16T05:50:50;97819.03;;;20.90;50.78
35655;BME280;21773;50.010;19.972;2022-09-16T05:53:54;97808.66;;;20.78;50.62
35655;BME280;21773;50.010;19.972;2022-09-16T05:56:59;97814.00;;;20.83;50.75
35655;BME280;21773;50.010;19.972;2022-09-16T06:00:09;97810.13;;;20.84;50.28
35655;BME280;21773;50.010;19.972;2022-09-16T06:03:13;97822.09;;;20.88;50.25
35655;BME280;21773;50.010;19.972;2022-09-16T06:06:21;97806.81;;;20.96;49.67
35655;BME280;21773;50.010;19.972;2022-09-16T06:09:25;97799.25;;;21.01;49.48
35655;BME280;21773;50.010;19.972;2022-09-16T06:12:29;97789.97;;;21.11;48.45
35655;BME280;21773;50.010;19.972;2022-09-16T06:15:33;97795.97;;;21.22;48.95
35655;BME280;21773;50.010;19.972;2022-09-16T06:18:36;97796.50;;;21.24;48.32
35655;BME280;21773;50.010;19.972;2022-09-16T06:21:40;97807.16;;;21.34;47.97
35655;BME280;21773;50.010;19.972;2022-09-16T06:24:44;97804.00;;;21.49;48.00
35655;BME280;21773;50.010;19.972;2022-09-16T06:27:49;97805.47;;;21.55;46.78
35655;BME280;21773;50.010;19.972;2022-09-16T06:31:00;97807.56;;;21.67;46.08
35655;BME280;21773;50.010;19.972;2022-09-16T06:34:04;97809.34;;;21.80;46.14
35655;BME280;21773;50.010;19.972;2022-09-16T06:37:08;97801.19;;;21.97;46.72
35655;BME280;21773;50.010;19.972;2022-09-16T06:40:14;97809.41;;;22.06;45.07
35655;BME280;21773;50.010;19.972;2022-09-16T06:43:19;97802.78;;;22.24;45.16
35655;BME280;21773;50.010;19.972;2022-09-16T06:46:24;97802.78;;;22.50;44.71
35655;BME280;21773;50.010;19.972;2022-09-16T06:49:27;97805.84;;;22.74;43.82
35655;BME280;21773;50.010;19.972;2022-09-16T06:52:31;97812.06;;;23.00;43.55
35655;BME280;21773;50.010;19.972;2022-09-16T06:55:35;97806.13;;;23.27;42.13
35655;BME280;21773;50.010;19.972;2022-09-16T06:58:41;97812.44;;;23.28;41.49
35655;BME280;21773;50.010;19.972;2022-09-16T07:01:45;97805.25;;;23.53;41.24
35655;BME280;21773;50.010;19.972;2022-09-16T07:04:49;97808.34;;;23.72;39.88
35655;BME280;21773;50.010;19.972;2022-09-16T07:07:52;97813.03;;;24.01;39.79
35655;BME280;21773;50.010;19.972;2022-09-16T07:10:57;97807.44;;;24.18;39.41
35655;BME280;21773;50.010;19.972;2022-09-16T07:14:01;97805.13;;;24.41;38.50
35655;BME280;21773;50.010;19.972;2022-09-16T07:17:05;97806.41;;;24.43;37.34
35655;BME280;21773;50.010;19.972;2022-09-16T07:20:09;97800.31;;;24.83;38.60
35655;BME280;21773;50.010;19.972;2022-09-16T07:23:13;97816.19;;;24.86;37.31
35655;BME280;21773;50.010;19.972;2022-09-16T07:26:18;97813.91;;;24.88;36.53
35655;BME280;21773;50.010;19.972;2022-09-16T07:29:23;97807.78;;;24.82;36.21
35655;BME280;21773;50.010;19.972;2022-09-16T07:32:27;97809.72;;;25.15;35.92
35655;BME280;21773;50.010;19.972;2022-09-16T07:35:30;97787.34;;;25.40;34.99
35655;BME280;21773;50.010;19.972;2022-09-16T07:38:33;97807.91;;;25.67;33.67
35655;BME280;21773;50.010;19.972;2022-09-16T07:41:38;97804.44;;;25.82;33.87
35655;BME280;21773;50.010;19.972;2022-09-16T07:44:43;97799.50;;;26.40;33.26
35655;BME280;21773;50.010;19.972;2022-09-16T07:47:48;97802.91;;;26.49;33.46
35655;BME280;21773;50.010;19.972;2022-09-16T07:50:56;97807.59;;;26.61;33.19
35655;BME280;21773;50.010;19.972;2022-09-16T07:54:02;97807.38;;;26.82;32.51
35655;BME280;21773;50.010;19.972;2022-09-16T07:57:06;97807.50;;;26.05;33.36
35655;BME280;21773;50.010;19.972;2022-09-16T08:00:12;97808.97;;;25.63;34.22
35655;BME280;21773;50.010;19.972;2022-09-16T08:03:17;97804.09;;;25.11;35.17
35655;BME280;21773;50.010;19.972;2022-09-16T08:06:22;97820.69;;;24.57;36.55
35655;BME280;21773;50.010;19.972;2022-09-16T08:09:26;97819.97;;;24.28;37.15
35655;BME280;21773;50.010;19.972;2022-09-16T08:12:49;97819.13;;;24.06;37.65
35655;BME280;21773;50.010;19.972;2022-09-16T08:15:59;97817.50;;;24.05;37.73
35655;BME280;21773;50.010;19.972;2022-09-16T08:19:03;97817.47;;;24.14;37.40
35655;BME280;21773;50.010;19.972;2022-09-16T08:22:06;97822.13;;;24.43;36.84
35655;BME280;21773;50.010;19.972;2022-09-16T08:25:10;97831.00;;;24.81;36.69
35655;BME280;21773;50.010;19.972;2022-09-16T08:28:13;97838.06;;;24.70;36.32
35655;BME280;21773;50.010;19.972;2022-09-16T08:31:19;97826.00;;;24.95;35.87
35655;BME280;21773;50.010;19.972;2022-09-16T08:34:22;97826.38;;;25.06;35.44
35655;BME280;21773;50.010;19.972;2022-09-16T08:37:26;97828.97;;;25.60;34.72
35655;BME280;21773;50.010;19.972;2022-09-16T08:40:35;97823.28;;;25.20;35.52
35655;BME280;21773;50.010;19.972;2022-09-16T08:43:41;97830.81;;;24.98;36.17
35655;BME280;21773;50.010;19.972;2022-09-16T08:46:51;97819.88;;;24.57;36.18
35655;BME280;21773;50.010;19.972;2022-09-16T08:49:57;97821.88;;;25.14;35.30
35655;BME280;21773;50.010;19.972;2022-09-16T08:53:06;97818.22;;;25.10;36.17
35655;BME280;21773;50.010;19.972;2022-09-16T08:56:14;97824.50;;;24.98;36.30
35655;BME280;21773;50.010;19.972;2022-09-16T08:59:23;97819.25;;;24.72;36.68
35655;BME280;21773;50.010;19.972;2022-09-16T09:02:37;97830.38;;;24.43;37.27
35655;BME280;21773;50.010;19.972;2022-09-16T09:05:48;97811.56;;;24.03;37.53
35655;BME280;21773;50.010;19.972;2022-09-16T09:08:59;97818.91;;;23.70;38.07
35655;BME280;21773;50.010;19.972;2022-09-16T09:12:09;97824.69;;;23.48;38.78
35655;BME280;21773;50.010;19.972;2022-09-16T09:15:26;97831.38;;;23.29;38.54
35655;BME280;21773;50.010;19.972;2022-09-16T09:18:39;97816.69;;;23.17;39.69
35655;BME280;21773;50.010;19.972;2022-09-16T09:21:53;97819.78;;;23.07;39.96
35655;BME280;21773;50.010;19.972;2022-09-16T09:25:19;97812.13;;;22.92;40.73
35655;BME280;21773;50.010;19.972;2022-09-16T09:28:39;97820.19;;;22.88;41.31
35655;BME280;21773;50.010;19.972;2022-09-16T09:31:54;97819.84;;;23.36;40.67
35655;BME280;21773;50.010;19.972;2022-09-16T09:35:11;97820.94;;;23.52;39.78
35655;BME280;21773;50.010;19.972;2022-09-16T09:38:40;97821.03;;;23.64;38.87
35655;BME280;21773;50.010;19.972;2022-09-16T09:41:51;97825.53;;;23.69;39.02
35655;BME280;21773;50.010;19.972;2022-09-16T09:44:57;97827.69;;;23.63;38.96
35655;BME280;21773;50.010;19.972;2022-09-16T09:48:14;97823.94;;;23.68;39.21
35655;BME280;21773;50.010;19.972;2022-09-16T09:51:26;97822.69;;;23.57;39.76
35655;BME280;21773;50.010;19.972;2022-09-16T09:54:34;97834.69;;;23.52;39.27
35655;BME280;21773;50.010;19.972;2022-09-16T09:57:40;97830.94;;;23.57;39.67
35655;BME280;21773;50.010;19.972;2022-09-16T10:00:48;97817.69;;;23.59;39.78
35655;BME280;21773;50.010;19.972;2022-09-16T10:03:54;97823.97;;;23.59;39.96
35655;BME280;21773;50.010;19.972;2022-09-16T10:07:00;97823.69;;;23.52;40.06
35655;BME280;21773;50.010;19.972;2022-09-16T10:10:13;97818.38;;;23.47;39.79
35655;BME280;21773;50.010;19.972;2022-09-16T10:13:19;97820.31;;;23.47;39.95
35655;BME280;21773;50.010;19.972;2022-09-16T10:16:27;97816.59;;;23.43;39.84
35655;BME280;21773;50.010;19.972;2022-09-16T10:19:34;97828.72;;;23.42;39.51
35655;BME280;21773;50.010;19.972;2022-09-16T10:22:54;97822.00;;;23.30;39.41
35655;BME280;21773;50.010;19.972;2022-09-16T10:26:05;97821.41;;;23.16;39.86
35655;BME280;21773;50.010;19.972;2022-09-16T10:29:15;97816.28;;;23.06;39.86
35655;BME280;21773;50.010;19.972;2022-09-16T10:32:18;97812.34;;;23.07;39.73
35655;BME280;21773;50.010;19.972;2022-09-16T10:35:24;97812.00;;;23.17;39.24
35655;BME280;21773;50.010;19.972;2022-09-16T10:38:38;97800.13;;;23.34;37.61
35655;BME280;21773;50.010;19.972;2022-09-16T10:41:43;97806.59;;;23.67;37.87
35655;BME280;21773;50.010;19.972;2022-09-16T10:44:48;97797.59;;;24.29;37.00
35655;BME280;21773;50.010;19.972;2022-09-16T10:47:56;97796.34;;;24.92;36.29
35655;BME280;21773;50.010;19.972;2022-09-16T10:51:20;97807.78;;;25.52;34.55
35655;BME280;21773;50.010;19.972;2022-09-16T10:54:26;97805.16;;;25.79;34.38
35655;BME280;21773;50.010;19.972;2022-09-16T10:57:32;97795.63;;;26.17;33.98
35655;BME280;21773;50.010;19.972;2022-09-16T11:00:45;97819.22;;;26.26;33.36
35655;BME280;21773;50.010;19.972;2022-09-16T11:04:14;97808.72;;;26.20;33.47
35655;BME280;21773;50.010;19.972;2022-09-16T11:07:30;97799.66;;;26.32;33.56
35655;BME280;21773;50.010;19.972;2022-09-16T11:10:43;97801.31;;;26.08;33.43
35655;BME280;21773;50.010;19.972;2022-09-16T11:13:55;97798.66;;;26.24;33.68
35655;BME280;21773;50.010;19.972;2022-09-16T11:17:14;97791.31;;;26.71;32.83
35655;BME280;21773;50.010;19.972;2022-09-16T11:20:51;97792.53;;;27.02;32.87
35655;BME280;21773;50.010;19.972;2022-09-16T11:24:10;97783.16;;;27.06;32.70
35655;BME280;21773;50.010;19.972;2022-09-16T11:27:28;97792.63;;;27.05;32.59
35655;BME280;21773;50.010;19.972;2022-09-16T11:30:38;97778.06;;;27.24;31.87
35655;BME280;21773;50.010;19.972;2022-09-16T11:33:49;97777.44;;;27.62;32.18
35655;BME280;21773;50.010;19.972;2022-09-16T11:37:02;97771.63;;;28.02;31.67
35655;BME280;21773;50.010;19.972;2022-09-16T11:40:18;97771.66;;;28.21;30.56
35655;BME280;21773;50.010;19.972;2022-09-16T11:43:58;97775.72;;;28.08;28.84
35655;BME280;21773;50.010;19.972;2022-09-16T11:47:22;97767.41;;;28.08;28.00
35655;BME280;21773;50.010;19.972;2022-09-16T11:50:38;97764.22;;;28.44;29.09
35655;BME280;21773;50.010;19.972;2022-09-16T11:54:04;97750.19;;;28.76;28.31
35655;BME280;21773;50.010;19.972;2022-09-16T11:57:14;97756.06;;;29.16;27.17
35655;BME280;21773;50.010;19.972;2022-09-16T12:00:20;97760.66;;;29.54;27.32
35655;BME280;21773;50.010;19.972;2022-09-16T12:03:28;97762.13;;;29.71;26.64
35655;BME280;21773;50.010;19.972;2022-09-16T12:06:38;97759.53;;;29.33;26.42
35655;BME280;21773;50.010;19.972;2022-09-16T12:09:47;97775.13;;;28.95;27.41
35655;BME280;21773;50.010;19.972;2022-09-16T12:12:54;97751.88;;;28.42;27.48
35655;BME280;21773;50.010;19.972;2022-09-16T12:16:05;97758.91;;;28.01;28.33
35655;BME280;21773;50.010;19.972;2022-09-16T12:19:16;97766.81;;;27.64;30.04
35655;BME280;21773;50.010;19.972;2022-09-16T12:22:26;97764.53;;;26.76;29.32
35655;BME280;21773;50.010;19.972;2022-09-16T12:25:38;97781.66;;;26.38;31.82
35655;BME280;21773;50.010;19.972;2022-09-16T12:28:56;97787.91;;;25.70;33.97
35655;BME280;21773;50.010;19.972;2022-09-16T12:32:07;97789.94;;;25.13;33.92
35655;BME280;21773;50.010;19.972;2022-09-16T12:35:14;97796.75;;;24.49;34.53
35655;BME280;21773;50.010;19.972;2022-09-16T12:38:20;97771.72;;;24.01;35.48
35655;BME280;21773;50.010;19.972;2022-09-16T12:41:43;97793.91;;;23.75;36.23
35655;BME280;21773;50.010;19.972;2022-09-16T12:45:09;97781.63;;;23.52;37.33
35655;BME280;21773;50.010;19.972;2022-09-16T12:52:22;97777.59;;;23.11;38.47
35655;BME280;21773;50.010;19.972;2022-09-16T12:55:43;97787.16;;;23.05;37.88
35655;BME280;21773;50.010;19.972;2022-09-16T12:59:04;97769.91;;;22.87;37.96
35655;BME280;21773;50.010;19.972;2022-09-16T13:02:16;97771.69;;;22.83;37.81
35655;BME280;21773;50.010;19.972;2022-09-16T13:05:25;97762.38;;;22.76;37.78
35655;BME280;21773;50.010;19.972;2022-09-16T13:08:35;97759.63;;;22.67;38.10
35655;BME280;21773;50.010;19.972;2022-09-16T13:11:39;97762.38;;;22.59;38.21
35655;BME280;21773;50.010;19.972;2022-09-16T13:15:05;97766.63;;;22.48;38.59
35655;BME280;21773;50.010;19.972;2022-09-16T13:18:21;97760.13;;;22.43;39.16
35655;BME280;21773;50.010;19.972;2022-09-16T13:21:36;97756.13;;;22.41;39.55
35655;BME280;21773;50.010;19.972;2022-09-16T13:24:45;97762.09;;;22.34;39.46
35655;BME280;21773;50.010;19.972;2022-09-16T13:27:58;97756.13;;;22.32;39.68
35655;BME280;21773;50.010;19.972;2022-09-16T13:31:17;97752.59;;;22.32;39.85
35655;BME280;21773;50.010;19.972;2022-09-16T13:34:21;97747.09;;;22.23;40.72
35655;BME280;21773;50.010;19.972;2022-09-16T13:37:27;97759.03;;;22.19;40.59
35655;BME280;21773;50.010;19.972;2022-09-16T13:40:31;97751.63;;;22.11;40.79
35655;BME280;21773;50.010;19.972;2022-09-16T13:43:36;97747.75;;;22.03;41.30
35655;BME280;21773;50.010;19.972;2022-09-16T13:46:39;97749.19;;;22.09;41.49
35655;BME280;21773;50.010;19.972;2022-09-16T13:49:46;97744.22;;;22.02;40.82
35655;BME280;21773;50.010;19.972;2022-09-16T13:52:52;97743.69;;;22.09;41.17
35655;BME280;21773;50.010;19.972;2022-09-16T13:56:00;97741.28;;;22.16;40.94
35655;BME280;21773;50.010;19.972;2022-09-16T14:02:41;97750.47;;;22.20;40.73
35655;BME280;21773;50.010;19.972;2022-09-16T14:06:07;97740.81;;;22.23;40.89
35655;BME280;21773;50.010;19.972;2022-09-16T14:09:24;97734.81;;;22.21;40.94
35655;BME280;21773;50.010;19.972;2022-09-16T14:12:38;97734.34;;;22.27;40.98
35655;BME280;21773;50.010;19.972;2022-09-16T14:15:47;97725.59;;;22.25;41.25
35655;BME280;21773;50.010;19.972;2022-09-16T14:18:55;97715.91;;;22.36;41.08
35655;BME280;21773;50.010;19.972;2022-09-16T14:22:03;97720.38;;;22.50;41.04
35655;BME280;21773;50.010;19.972;2022-09-16T14:25:27;97715.56;;;22.46;41.46
35655;BME280;21773;50.010;19.972;2022-09-16T14:28:31;97718.94;;;22.43;41.27
35655;BME280;21773;50.010;19.972;2022-09-16T14:31:39;97717.00;;;22.44;41.24
35655;BME280;21773;50.010;19.972;2022-09-16T14:34:47;97719.44;;;22.45;41.61
35655;BME280;21773;50.010;19.972;2022-09-16T14:37:56;97710.88;;;22.38;42.03
35655;BME280;21773;50.010;19.972;2022-09-16T14:41:04;97713.00;;;22.41;41.43
35655;BME280;21773;50.010;19.972;2022-09-16T14:44:13;97711.19;;;22.45;41.59
35655;BME280;21773;50.010;19.972;2022-09-16T14:47:22;97710.81;;;22.64;40.88
35655;BME280;21773;50.010;19.972;2022-09-16T14:50:49;97715.97;;;22.74;40.72
35655;BME280;21773;50.010;19.972;2022-09-16T14:53:55;97719.03;;;22.81;40.83
35655;BME280;21773;50.010;19.972;2022-09-16T14:57:18;97692.47;;;22.48;40.93
35655;BME280;21773;50.010;19.972;2022-09-16T15:00:26;97708.31;;;22.42;41.07
35655;BME280;21773;50.010;19.972;2022-09-16T15:03:37;97702.97;;;22.37;41.81
35655;BME280;21773;50.010;19.972;2022-09-16T15:06:48;97699.59;;;22.31;41.30
35655;BME280;21773;50.010;19.972;2022-09-16T15:09:57;97700.72;;;22.30;41.95
35655;BME280;21773;50.010;19.972;2022-09-16T15:13:07;97689.91;;;22.25;42.47
35655;BME280;21773;50.010;19.972;2022-09-16T15:16:14;97697.03;;;22.26;42.17
35655;BME280;21773;50.010;19.972;2022-09-16T15:19:21;97687.16;;;22.25;41.84
35655;BME280;21773;50.010;19.972;2022-09-16T15:22:26;97687.34;;;22.20;41.89
35655;BME280;21773;50.010;19.972;2022-09-16T15:25:31;97667.50;;;22.06;42.49
35655;BME280;21773;50.010;19.972;2022-09-16T15:28:48;97691.25;;;22.11;42.41
35655;BME280;21773;50.010;19.972;2022-09-16T15:31:52;97690.25;;;22.15;42.30
35655;BME280;21773;50.010;19.972;2022-09-16T15:35:07;97689.78;;;22.04;43.02
35655;BME280;21773;50.010;19.972;2022-09-16T15:38:20;97692.22;;;21.97;42.65
35655;BME280;21773;50.010;19.972;2022-09-16T15:41:24;97688.31;;;21.90;43.42
35655;BME280;21773;50.010;19.972;2022-09-16T15:44:29;97671.09;;;21.98;42.91
35655;BME280;21773;50.010;19.972;2022-09-16T15:47:52;97665.59;;;21.98;42.93
35655;BME280;21773;50.010;19.972;2022-09-16T15:50:59;97667.03;;;21.95;42.95
35655;BME280;21773;50.010;19.972;2022-09-16T15:54:13;97670.13;;;21.94;42.61
35655;BME280;21773;50.010;19.972;2022-09-16T15:57:27;97667.03;;;21.87;41.93
35655;BME280;21773;50.010;19.972;2022-09-16T16:00:56;97666.72;;;21.88;41.43
35655;BME280;21773;50.010;19.972;2022-09-16T16:04:03;97667.84;;;21.87;40.86
35655;BME280;21773;50.010;19.972;2022-09-16T16:07:07;97676.06;;;21.87;40.70
35655;BME280;21773;50.010;19.972;2022-09-16T16:10:13;97676.22;;;21.82;40.74
35655;BME280;21773;50.010;19.972;2022-09-16T16:13:17;97673.00;;;21.72;40.80
35655;BME280;21773;50.010;19.972;2022-09-16T16:16:22;97680.44;;;21.63;40.61
35655;BME280;21773;50.010;19.972;2022-09-16T16:19:27;97681.41;;;21.49;40.61
35655;BME280;21773;50.010;19.972;2022-09-16T16:22:31;97686.88;;;21.49;41.15
35655;BME280;21773;50.010;19.972;2022-09-16T16:25:35;97675.88;;;21.32;41.02
35655;BME280;21773;50.010;19.972;2022-09-16T16:28:39;97678.63;;;21.32;41.25
35655;BME280;21773;50.010;19.972;2022-09-16T16:31:59;97684.13;;;21.32;41.70
35655;BME280;21773;50.010;19.972;2022-09-16T16:35:04;97684.63;;;21.34;41.70
35655;BME280;21773;50.010;19.972;2022-09-16T16:38:08;97687.97;;;21.31;42.47